Time;durP1;ratioP1;P1;durP2;ratioP2;P2;SDS_P1;SDS_P2;PMS_P1;PMS_P2;Temp;Humidity;BMP_temperature;BMP_pressure;BME280_temperature;BME280_humidity;BME280_pressure;Samples;Min_cycle;Max_cycle;Signal;HPM_P1;HPM_P2
2023/04/12 00:01:35;;;;;;;;;2.75;2.75;;;;;10.59;74.04;100089.72;6186163;23;45241;-72
2023/04/12 00:04:01;;;;;;;;;6.25;4.00;;;;;10.68;74.08;100104.81;6185400;23;46193;-72
2023/04/12 00:06:31;;;;;;;;;4.75;3.75;;;;;10.68;73.66;100088.94;6186208;23;45289;-72
2023/04/12 00:09:00;;;;;;;;;3.75;3.00;;;;;10.67;74.51;100077.50;6185523;23;45396;-72
2023/04/12 00:11:27;;;;;;;;;5.50;2.00;;;;;10.72;73.71;100083.69;6186205;23;45154;-72
2023/04/12 00:13:53;;;;;;;;;6.75;4.00;;;;;10.77;74.14;100096.09;6158383;23;46796;-72
2023/04/12 00:16:18;;;;;;;;;3.25;3.25;;;;;10.61;73.76;100058.88;6186004;23;45215;-72
2023/04/12 00:18:44;;;;;;;;;4.00;3.00;;;;;10.75;73.54;100096.06;6185977;23;45186;-73
2023/04/12 00:21:09;;;;;;;;;2.50;2.50;;;;;10.72;73.84;100066.97;6158446;23;46357;-72
2023/04/12 00:23:36;;;;;;;;;2.00;2.00;;;;;10.75;74.42;100056.41;6185397;23;45268;-72
2023/04/12 00:26:02;;;;;;;;;5.75;3.25;;;;;10.58;73.73;100032.44;6158873;23;45225;-72
2023/04/12 00:28:27;;;;;;;;;5.75;3.00;;;;;10.64;75.61;100037.81;6185639;23;45196;-72
2023/04/12 00:30:53;;;;;;;;;5.00;3.75;;;;;10.75;74.01;100051.13;6158623;23;45167;-72
2023/04/12 00:33:18;;;;;;;;;3.25;3.00;;;;;10.66;75.78;100021.97;6158079;23;46894;-72
2023/04/12 00:35:43;;;;;;;;;4.00;2.00;;;;;10.71;75.08;100037.00;6185670;23;45154;-72
2023/04/12 00:38:09;;;;;;;;;8.00;5.00;;;;;10.42;75.00;99975.91;6185050;23;47698;-72
2023/04/12 00:40:36;;;;;;;;;4.25;3.25;;;;;10.71;74.48;100018.50;6185947;23;45364;-72
2023/04/12 00:43:01;;;;;;;;;2.50;2.00;;;;;10.78;73.88;100021.19;6185697;23;45389;-72
2023/04/12 00:45:27;;;;;;;;;4.50;3.25;;;;;10.77;74.78;100022.09;6185677;23;45271;-72
2023/04/12 00:47:53;;;;;;;;;3.00;3.00;;;;;10.69;73.87;99998.19;6158643;23;45269;-72
2023/04/12 00:50:20;;;;;;;;;5.75;3.00;;;;;10.76;75.00;100005.34;6185542;23;45436;-72
2023/04/12 00:52:45;;;;;;;;;5.25;4.00;;;;;10.51;74.35;99941.66;6158103;23;47924;-72
2023/04/12 00:55:11;;;;;;;;;4.50;4.00;;;;;10.66;75.75;99966.47;6185743;23;45316;-72
2023/04/12 00:57:38;;;;;;;;;4.25;4.00;;;;;10.81;74.62;99990.44;6158661;23;45183;-72
2023/04/12 01:00:05;;;;;;;;;4.75;4.00;;;;;10.67;76.04;99977.06;6186043;23;45318;-72
2023/04/12 01:02:32;;;;;;;;;3.00;3.00;;;;;10.74;75.32;99963.03;6185479;23;46450;-72
2023/04/12 01:04:58;;;;;;;;;5.00;4.00;;;;;10.84;75.57;99969.31;6158873;23;45805;-72
2023/04/12 01:07:37;;;;;;;;;4.75;4.00;;;;;10.87;74.09;99944.66;6185300;23;45198;-73
2023/04/12 01:10:25;;;;;;;;;5.75;3.25;;;;;10.77;74.91;99919.00;6184493;23;45463;-73
2023/04/12 01:13:09;;;;;;;;;4.00;3.25;;;;;10.88;76.17;99938.47;6185382;23;46558;-73
2023/04/12 01:15:43;;;;;;;;;2.25;2.25;;;;;10.79;74.87;99915.50;6185216;23;45245;-72
2023/04/12 01:18:18;;;;;;;;;4.50;3.75;;;;;10.83;74.08;99919.03;6185319;23;45201;-72
2023/04/12 01:21:06;;;;;;;;;5.25;3.00;;;;;10.94;74.57;99920.03;6185627;23;45159;-72
2023/04/12 01:23:50;;;;;;;;;4.00;3.00;;;;;10.95;74.66;99927.97;6184790;23;45333;-72
2023/04/12 01:26:43;;;;;;;;;2.50;2.50;;;;;10.96;74.96;99920.94;6158651;23;45380;-72
2023/04/12 01:29:12;;;;;;;;;4.00;4.00;;;;;10.89;76.21;99896.19;6185470;23;45156;-73
2023/04/12 01:31:48;;;;;;;;;2.50;2.50;;;;;10.91;74.18;99886.50;6186086;23;45377;-72
2023/04/12 01:34:15;;;;;;;;;4.50;3.50;;;;;10.93;76.80;99890.06;6185627;23;45433;-72
2023/04/12 01:36:42;;;;;;;;;6.75;2.75;;;;;10.94;75.94;99878.59;6158255;23;45372;-72
2023/04/12 01:39:08;;;;;;;;;4.00;3.00;;;;;11.01;74.71;99882.19;6185172;23;45175;-73
2023/04/12 01:41:38;;;;;;;;;4.00;2.75;;;;;10.82;74.56;99845.91;6159451;23;45297;-72
2023/04/12 01:44:03;;;;;;;;;6.25;4.00;;;;;11.03;75.80;99876.91;6185039;23;45410;-73
2023/04/12 01:46:29;;;;;;;;;3.50;3.00;;;;;10.96;75.68;99862.75;6185642;23;45333;-72
2023/04/12 01:48:55;;;;;;;;;2.00;2.00;;;;;10.95;74.90;99863.63;6185449;23;45425;-72
2023/04/12 01:51:35;;;;;;;;;2.50;2.50;;;;;11.04;74.98;99852.25;6185545;23;45242;-72
2023/04/12 01:54:11;;;;;;;;;3.00;3.00;;;;;11.05;74.76;99854.00;6157636;23;46068;-72
2023/04/12 01:56:42;;;;;;;;;5.00;3.25;;;;;11.00;74.65;99838.09;6158365;23;45360;-72
2023/04/12 01:59:09;;;;;;;;;2.75;2.75;;;;;10.96;76.83;99828.38;6185789;23;45206;-72
2023/04/12 02:01:35;;;;;;;;;4.75;3.00;;;;;10.95;75.97;99818.66;6185478;23;45534;-73
2023/04/12 02:04:03;;;;;;;;;7.25;3.50;;;;;11.04;76.42;99821.38;6158061;23;46754;-72
2023/04/12 02:06:30;;;;;;;;;3.00;3.00;;;;;10.86;75.56;99795.69;6185272;23;45383;-73
2023/04/12 02:09:04;;;;;;;;;3.25;2.50;;;;;11.01;74.60;99810.78;6185195;23;45401;-73
2023/04/12 02:11:30;;;;;;;;;2.75;2.00;;;;;11.03;75.33;99803.72;6185443;23;45246;-73
2023/04/12 02:13:55;;;;;;;;;3.00;3.00;;;;;11.15;76.04;99818.81;6185232;23;45576;-73
2023/04/12 02:16:21;;;;;;;;;2.00;2.00;;;;;11.10;74.96;99791.47;6158481;23;45301;-73
2023/04/12 02:18:47;;;;;;;;;2.00;2.00;;;;;11.06;76.19;99779.06;6185551;23;45235;-73
2023/04/12 02:21:13;;;;;;;;;3.75;3.25;;;;;11.14;76.25;99783.53;6185563;23;45144;-73
2023/04/12 02:23:38;;;;;;;;;2.25;1.25;;;;;11.08;76.77;99775.56;6184319;23;45442;-73
2023/04/12 02:26:03;;;;;;;;;3.25;2.75;;;;;10.97;76.50;99741.13;6158452;23;53620;-72
2023/04/12 02:28:29;;;;;;;;;1.00;1.00;;;;;11.10;76.74;99765.00;6159185;23;45190;-72
2023/04/12 02:30:54;;;;;;;;;1.50;1.00;;;;;11.23;76.01;99773.88;6186747;23;44931;-72
2023/04/12 02:33:26;;;;;;;;;4.00;2.25;;;;;11.16;78.17;99768.56;6185939;23;45195;-72
2023/04/12 02:35:52;;;;;;;;;1.75;1.75;;;;;11.15;76.98;99756.22;6186381;23;45219;-72
2023/04/12 02:38:17;;;;;;;;;2.00;1.00;;;;;11.12;75.93;99735.06;6186252;23;45162;-72
2023/04/12 02:40:44;;;;;;;;;1.00;1.00;;;;;11.04;75.73;99707.69;6186716;23;45239;-72
2023/04/12 02:43:09;;;;;;;;;4.00;2.00;;;;;11.08;75.16;99720.03;6186461;23;46115;-72
2023/04/12 02:45:35;;;;;;;;;1.00;1.00;;;;;11.17;76.36;99729.75;6159541;23;45179;-72
2023/04/12 02:48:01;;;;;;;;;4.75;1.00;;;;;11.28;76.40;99751.84;6186746;23;45167;-72
2023/04/12 02:50:26;;;;;;;;;2.50;1.50;;;;;11.22;75.71;99719.22;6186675;23;45165;-72
2023/04/12 02:52:51;;;;;;;;;2.00;1.00;;;;;11.36;76.44;99751.91;6186113;23;45230;-72
2023/04/12 02:55:16;;;;;;;;;1.00;1.00;;;;;11.29;77.22;99756.28;6159570;23;45327;-72
2023/04/12 02:57:46;;;;;;;;;2.50;2.25;;;;;11.35;76.62;99780.13;6186552;23;45218;-72
2023/04/12 03:00:12;;;;;;;;;2.00;2.00;;;;;11.33;77.65;99797.75;6186688;23;45380;-72
2023/04/12 03:02:37;;;;;;;;;2.50;2.50;;;;;11.41;76.45;99796.03;6158787;23;45584;-72
2023/04/12 03:05:03;;;;;;;;;4.75;4.00;;;;;11.28;77.80;99785.38;6186578;23;45213;-72
2023/04/12 03:07:29;;;;;;;;;1.75;1.50;;;;;11.26;76.01;99800.34;6158733;23;45157;-72
2023/04/12 03:09:55;;;;;;;;;1.00;1.00;;;;;11.05;76.54;99780.84;6186398;23;45479;-73
2023/04/12 03:12:21;;;;;;;;;0.00;0.00;;;;;11.06;76.21;99790.56;6159266;23;47223;-72
2023/04/12 03:14:46;;;;;;;;;0.50;0.00;;;;;10.99;75.49;99794.03;6186792;23;45274;-73
2023/04/12 03:17:11;;;;;;;;;0.00;0.00;;;;;10.88;78.58;99782.50;6159343;23;46140;-72
2023/04/12 03:19:37;;;;;;;;;1.00;0.00;;;;;10.87;75.97;99793.97;6186615;23;45448;-73
2023/04/12 03:22:03;;;;;;;;;0.00;0.00;;;;;10.66;76.29;99763.84;6186038;23;45544;-72
2023/04/12 03:24:33;;;;;;;;;0.00;0.00;;;;;10.60;76.42;99755.88;6186059;23;45295;-72
2023/04/12 03:26:58;;;;;;;;;0.00;0.00;;;;;10.60;76.60;99749.69;6186371;23;45180;-72
2023/04/12 03:29:24;;;;;;;;;0.00;0.00;;;;;10.45;75.45;99737.28;6186161;23;45163;-73
2023/04/12 03:31:49;;;;;;;;;0.75;0.75;;;;;10.46;77.32;99737.25;6186039;23;45588;-72
2023/04/12 03:34:15;;;;;;;;;0.00;0.00;;;;;10.52;76.35;99749.63;6186047;23;45096;-72
2023/04/12 03:36:40;;;;;;;;;0.00;0.00;;;;;10.49;77.20;99747.84;6186416;23;44624;-71
2023/04/12 03:39:06;;;;;;;;;0.00;0.00;;;;;10.51;76.77;99742.59;6185625;23;45515;-73
2023/04/12 03:41:31;;;;;;;;;0.00;0.00;;;;;10.53;77.61;99748.78;6186072;23;50888;-73
2023/04/12 03:43:56;;;;;;;;;0.00;0.00;;;;;10.41;76.86;99722.25;6186130;23;45258;-71
2023/04/12 03:46:22;;;;;;;;;0.00;0.00;;;;;10.58;77.05;99764.66;6186439;23;45337;-71
2023/04/12 03:48:48;;;;;;;;;0.00;0.00;;;;;10.51;77.95;99747.88;6159206;22;45491;-71
2023/04/12 03:51:14;;;;;;;;;0.00;0.00;;;;;10.57;77.01;99749.69;6185546;23;47617;-73
2023/04/12 03:53:40;;;;;;;;;0.00;0.00;;;;;10.62;76.05;99753.25;6186039;23;45372;-72
2023/04/12 03:56:06;;;;;;;;;0.00;0.00;;;;;10.62;77.60;99746.19;6186470;23;45214;-73
2023/04/12 03:58:34;;;;;;;;;0.00;0.00;;;;;10.58;78.67;99733.81;6185830;23;45297;-73
2023/04/12 04:01:04;;;;;;;;;0.00;0.00;;;;;10.56;77.66;99717.09;6186023;23;45490;-73
2023/04/12 04:03:33;;;;;;;;;0.00;0.00;;;;;10.56;77.78;99725.03;6185879;23;45242;-73
2023/04/12 04:06:00;;;;;;;;;0.00;0.00;;;;;10.57;76.86;99715.34;6185007;23;45219;-73
2023/04/12 04:08:27;;;;;;;;;0.00;0.00;;;;;10.54;77.23;99724.13;6185714;23;45504;-73
2023/04/12 04:10:52;;;;;;;;;0.00;0.00;;;;;10.44;77.33;99709.94;6186200;23;46067;-73
2023/04/12 04:13:18;;;;;;;;;0.00;0.00;;;;;10.61;76.31;99739.13;6185734;23;45279;-73
2023/04/12 04:15:43;;;;;;;;;0.00;0.00;;;;;10.58;76.57;99728.53;6186527;23;45261;-73
2023/04/12 04:18:08;;;;;;;;;0.75;0.75;;;;;10.64;76.87;99743.56;6158509;23;47272;-73
2023/04/12 04:20:34;;;;;;;;;0.00;0.00;;;;;10.56;77.15;99737.31;6186215;23;45608;-73
2023/04/12 04:22:59;;;;;;;;;0.25;0.25;;;;;10.61;77.67;99739.13;6184163;23;45376;-73
2023/04/12 04:25:28;;;;;;;;;0.00;0.00;;;;;10.57;77.53;99728.53;6159174;23;45278;-73
2023/04/12 04:27:54;;;;;;;;;0.00;0.00;;;;;10.65;76.80;99737.41;6185104;23;45150;-73
2023/04/12 04:30:21;;;;;;;;;0.00;0.00;;;;;10.54;76.84;99724.13;6158818;23;47087;-73
2023/04/12 04:32:47;;;;;;;;;0.00;0.00;;;;;10.50;77.58;99710.00;6158971;23;45641;-73
2023/04/12 04:35:15;;;;;;;;;0.00;0.00;;;;;10.47;76.85;99701.16;6159389;23;45327;-73
2023/04/12 04:37:41;;;;;;;;;0.00;0.00;;;;;10.63;76.96;99737.38;6185427;23;45314;-73
2023/04/12 04:40:07;;;;;;;;;0.00;0.00;;;;;10.52;78.15;99720.56;6186390;23;45919;-71
2023/04/12 04:42:33;;;;;;;;;0.00;0.00;;;;;10.60;76.26;99726.81;6185761;23;45165;-71
2023/04/12 04:45:02;;;;;;;;;1.00;0.00;;;;;10.40;77.25;99680.88;6159179;23;45311;-72
2023/04/12 04:47:30;;;;;;;;;2.00;0.50;;;;;10.51;77.72;99708.25;6158297;23;45957;-71
2023/04/12 04:49:58;;;;;;;;;0.00;0.00;;;;;10.57;76.89;99708.28;6185579;23;46241;-74
2023/04/12 04:52:24;;;;;;;;;0.00;0.00;;;;;10.57;77.17;99710.94;6185097;23;45250;-73
2023/04/12 04:54:49;;;;;;;;;5.00;4.50;;;;;10.50;76.13;99720.59;6186314;23;45191;-73
2023/04/12 04:57:14;;;;;;;;;7.50;6.00;;;;;10.54;76.11;99737.34;6185779;23;45477;-71
2023/04/12 04:59:40;;;;;;;;;4.00;4.00;;;;;10.34;75.99;99707.25;6186138;23;45372;-71
2023/04/12 05:02:05;;;;;;;;;2.75;2.75;;;;;10.35;75.34;99701.09;6158825;23;49090;-74
2023/04/12 05:04:30;;;;;;;;;1.00;1.00;;;;;10.40;75.02;99736.34;6186547;23;45344;-74
2023/04/12 05:06:56;;;;;;;;;3.25;3.00;;;;;10.26;74.79;99747.66;6185553;23;45249;-71
2023/04/12 05:09:21;;;;;;;;;4.00;4.00;;;;;10.16;75.47;99758.97;6185456;23;55877;-72
2023/04/12 05:11:46;;;;;;;;;3.00;3.00;;;;;10.12;74.87;99774.81;6185527;23;51209;-71
2023/04/12 05:14:12;;;;;;;;;3.00;3.00;;;;;9.86;73.97;99747.28;6185549;23;45479;-71
2023/04/12 05:16:37;;;;;;;;;4.75;2.75;;;;;9.74;74.77;99746.25;6185831;23;45257;-71
2023/04/12 05:19:02;;;;;;;;;1.00;1.00;;;;;9.79;75.46;99765.66;6185727;23;45394;-74
2023/04/12 05:21:28;;;;;;;;;1.25;1.00;;;;;9.78;75.44;99775.34;6185799;23;45303;-73
2023/04/12 05:23:53;;;;;;;;;2.50;2.25;;;;;9.67;75.43;99771.69;6172550;23;45361;-70
2023/04/12 05:26:18;;;;;;;;;1.50;0.00;;;;;9.45;74.77;99735.38;6186097;22;45245;-74
2023/04/12 05:28:44;;;;;;;;;1.00;1.00;;;;;9.46;74.69;99774.94;6185519;22;45292;-74
2023/04/12 05:31:09;;;;;;;;;2.25;1.00;;;;;9.40;76.09;99785.44;6209683;22;45247;-73
2023/04/12 05:33:35;;;;;;;;;1.00;1.00;;;;;9.22;74.44;99762.38;6185868;22;45233;-73
2023/04/12 05:36:01;;;;;;;;;3.00;3.00;;;;;9.39;75.46;99808.28;6185580;22;45403;-73
2023/04/12 05:38:26;;;;;;;;;3.50;3.50;;;;;9.35;74.76;99803.84;6185533;22;46099;-73
2023/04/12 05:40:51;;;;;;;;;2.00;1.00;;;;;9.29;74.45;99809.03;6185994;22;45109;-74
2023/04/12 05:43:17;;;;;;;;;2.25;2.25;;;;;9.17;74.46;99800.97;6185216;22;45221;-74
2023/04/12 05:45:42;;;;;;;;;4.00;1.00;;;;;9.05;74.57;99792.88;6185875;22;45524;-73
2023/04/12 05:48:08;;;;;;;;;7.25;5.00;;;;;8.93;74.28;99786.59;6185643;22;45413;-74
2023/04/12 05:50:33;;;;;;;;;4.00;4.00;;;;;8.98;74.26;99806.84;6185508;23;45555;-73
2023/04/12 05:53:02;;;;;;;;;3.00;3.00;;;;;8.59;75.16;99758.81;6183431;23;45258;-73
2023/04/12 05:55:28;;;;;;;;;5.25;5.25;;;;;8.79;75.18;99813.56;6185690;22;45484;-73
2023/04/12 05:57:53;;;;;;;;;3.50;3.00;;;;;8.73;75.45;99817.00;6183630;23;47325;-72
2023/04/12 06:00:20;;;;;;;;;3.25;3.00;;;;;8.81;75.21;99839.06;6185821;22;45273;-72
2023/04/12 06:02:46;;;;;;;;;5.75;5.75;;;;;8.74;74.55;99838.09;6185586;23;45190;-72
2023/04/12 06:05:12;;;;;;;;;2.50;2.50;;;;;8.67;75.36;99815.16;6185806;22;45479;-73
2023/04/12 06:07:39;;;;;;;;;2.00;2.00;;;;;8.70;76.09;99816.94;6185197;22;45151;-73
2023/04/12 06:10:06;;;;;;;;;4.25;4.25;;;;;8.60;76.32;99796.56;6185169;23;44709;-74
2023/04/12 06:12:31;;;;;;;;;3.00;3.00;;;;;8.67;75.99;99811.63;6185290;22;45252;-74
2023/04/12 06:14:57;;;;;;;;;3.50;3.50;;;;;8.70;76.64;99798.50;6185259;23;45393;-74
2023/04/12 06:17:22;;;;;;;;;2.75;1.00;;;;;8.84;77.29;99809.25;6185154;22;45351;-74
2023/04/12 06:19:47;;;;;;;;;2.25;2.25;;;;;8.81;76.81;99796.91;6182504;22;45222;-74
2023/04/12 06:22:14;;;;;;;;;4.50;3.00;;;;;8.65;76.19;99761.53;6184408;22;45257;-74
2023/04/12 06:24:39;;;;;;;;;3.00;2.00;;;;;9.10;75.77;99830.72;6184361;22;45422;-74
2023/04/12 06:27:04;;;;;;;;;2.50;2.50;;;;;9.12;76.55;99818.47;6156865;23;48019;-72
2023/04/12 06:29:30;;;;;;;;;6.00;3.00;;;;;9.12;75.83;99813.19;6180213;23;45548;-72
2023/04/12 06:31:55;;;;;;;;;3.25;3.00;;;;;9.16;75.27;99823.81;6184039;23;45350;-73
2023/04/12 06:34:21;;;;;;;;;5.50;3.00;;;;;9.18;75.88;99827.31;6157893;23;46776;-73
2023/04/12 06:36:46;;;;;;;;;5.75;4.00;;;;;9.31;75.91;99822.25;6184250;23;45524;-74
2023/04/12 06:39:12;;;;;;;;;4.75;4.75;;;;;9.39;76.95;99824.13;6157771;23;45300;-73
2023/04/12 06:41:38;;;;;;;;;7.75;4.25;;;;;9.41;76.70;99824.16;6157562;23;44679;-73
2023/04/12 06:44:04;;;;;;;;;5.75;5.00;;;;;9.32;76.10;99793.25;6157210;23;45286;-73
2023/04/12 06:46:30;;;;;;;;;6.50;4.00;;;;;9.49;75.96;99822.47;6183841;23;45480;-73
2023/04/12 06:48:55;;;;;;;;;4.00;2.00;;;;;9.51;74.99;99833.94;6156860;23;45302;-73
2023/04/12 06:51:20;;;;;;;;;2.00;1.00;;;;;9.47;74.51;99821.59;6157469;23;45262;-73
2023/04/12 06:53:46;;;;;;;;;1.00;1.00;;;;;9.44;74.28;99840.00;6183140;23;45235;-73
2023/04/12 06:56:11;;;;;;;;;1.50;1.50;;;;;9.38;74.80;99837.28;6184750;23;45281;-73
2023/04/12 06:58:36;;;;;;;;;4.00;1.00;;;;;9.38;74.49;99837.28;6183845;23;45077;-73
2023/04/12 07:01:06;;;;;;;;;2.75;1.00;;;;;9.42;74.14;99841.75;6184825;23;45344;-73
2023/04/12 07:03:32;;;;;;;;;3.00;1.00;;;;;9.41;73.64;99838.22;6157298;23;46129;-73
2023/04/12 07:05:59;;;;;;;;;2.00;1.75;;;;;9.34;74.02;99817.00;6184281;23;45338;-73
2023/04/12 07:08:25;;;;;;;;;3.00;1.00;;;;;9.43;74.22;99814.47;6184304;23;45112;-73
2023/04/12 07:10:56;;;;;;;;;3.50;3.25;;;;;9.49;75.07;99816.31;6157179;23;45306;-73
2023/04/12 07:13:22;;;;;;;;;2.50;2.50;;;;;9.54;74.34;99817.25;6184171;23;45238;-73
2023/04/12 07:15:49;;;;;;;;;1.00;1.00;;;;;9.51;73.96;99807.56;6185717;23;45163;-73
2023/04/12 07:18:14;;;;;;;;;2.00;1.50;;;;;9.63;74.22;99827.91;6158028;23;45542;-73
2023/04/12 07:20:40;;;;;;;;;2.50;2.00;;;;;9.64;73.74;99817.41;6185831;23;45324;-73
2023/04/12 07:23:05;;;;;;;;;2.00;1.50;;;;;9.51;74.86;99782.94;6185226;23;45155;-73
2023/04/12 07:25:30;;;;;;;;;2.00;2.00;;;;;9.64;73.77;99800.69;6158898;23;46831;-72
2023/04/12 07:27:56;;;;;;;;;4.75;0.00;;;;;9.66;73.81;99788.38;6158752;23;45260;-73
2023/04/12 07:30:22;;;;;;;;;0.25;0.25;;;;;9.81;74.18;99799.13;6158663;23;45198;-72
2023/04/12 07:32:47;;;;;;;;;1.00;1.00;;;;;9.99;73.44;99811.63;6185740;23;45479;-73
2023/04/12 07:35:13;;;;;;;;;5.00;2.00;;;;;9.93;74.39;99787.81;6186169;23;45331;-74
2023/04/12 07:37:38;;;;;;;;;1.25;1.25;;;;;9.93;72.88;99768.44;6185274;23;45613;-73
2023/04/12 07:40:04;;;;;;;;;2.00;1.00;;;;;10.04;73.06;99786.16;6186011;23;45344;-73
2023/04/12 07:42:30;;;;;;;;;0.50;0.50;;;;;10.23;72.71;99818.94;6185958;23;45348;-73
2023/04/12 07:44:55;;;;;;;;;1.00;1.00;;;;;10.19;72.70;99793.34;6185026;23;45230;-73
2023/04/12 07:47:20;;;;;;;;;1.50;1.50;;;;;10.31;72.57;99800.56;6184558;23;45327;-73
2023/04/12 07:49:46;;;;;;;;;1.00;1.00;;;;;10.33;71.55;99800.56;6186329;23;45280;-73
2023/04/12 07:52:11;;;;;;;;;1.00;1.00;;;;;10.26;72.14;99796.94;6185454;23;45227;-73
2023/04/12 07:54:36;;;;;;;;;0.00;0.00;;;;;10.34;72.83;99802.34;6185876;23;45323;-73
2023/04/12 07:57:02;;;;;;;;;0.50;0.00;;;;;10.47;72.86;99801.56;6185892;23;45357;-73
2023/04/12 07:59:29;;;;;;;;;1.00;1.00;;;;;10.53;72.93;99794.59;6186440;23;45194;-72
2023/04/12 08:01:55;;;;;;;;;2.00;1.00;;;;;10.77;71.65;99815.91;6158588;23;45240;-72
2023/04/12 08:04:20;;;;;;;;;2.00;1.25;;;;;10.84;71.70;99815.97;6185687;23;46201;-73
2023/04/12 08:06:46;;;;;;;;;1.25;1.00;;;;;10.96;72.01;99834.56;6158581;23;45266;-73
2023/04/12 08:09:11;;;;;;;;;2.00;1.00;;;;;10.94;71.60;99811.63;6185762;23;45260;-74
2023/04/12 08:11:37;;;;;;;;;1.00;1.00;;;;;11.02;71.97;99827.53;6185485;23;45226;-72
2023/04/12 08:14:02;;;;;;;;;3.00;1.00;;;;;11.13;71.29;99850.53;6157796;23;46923;-72
2023/04/12 08:16:27;;;;;;;;;1.00;1.00;;;;;11.08;71.45;99831.09;6185826;23;45266;-71
2023/04/12 08:18:53;;;;;;;;;3.00;1.00;;;;;11.27;71.06;99853.28;6183584;23;45331;-72
2023/04/12 08:21:18;;;;;;;;;0.00;0.00;;;;;11.03;71.01;99790.50;6185754;23;45223;-72
2023/04/12 08:23:44;;;;;;;;;1.00;1.00;;;;;11.43;70.30;99849.84;6184655;23;46207;-72
2023/04/12 08:26:09;;;;;;;;;2.00;1.00;;;;;11.50;70.41;99852.50;6185936;23;45282;-73
2023/04/12 08:28:34;;;;;;;;;2.25;0.00;;;;;11.64;69.36;99861.41;6158964;23;45319;-72
2023/04/12 08:31:00;;;;;;;;;0.00;0.00;;;;;11.64;68.72;99854.34;6185886;23;45394;-72
2023/04/12 08:33:25;;;;;;;;;0.50;0.50;;;;;11.69;67.51;99845.56;6158689;23;45890;-73
2023/04/12 08:35:51;;;;;;;;;2.50;0.00;;;;;11.72;69.15;99834.97;6185185;23;45202;-73
2023/04/12 08:38:17;;;;;;;;;0.00;0.00;;;;;11.87;68.74;99845.66;6185565;23;45300;-73
2023/04/12 08:40:43;;;;;;;;;1.00;0.00;;;;;11.98;67.24;99870.41;6186152;23;45135;-73
2023/04/12 08:43:10;;;;;;;;;2.00;0.00;;;;;12.01;66.28;99848.34;6185283;23;45496;-74
2023/04/12 08:45:36;;;;;;;;;0.50;0.00;;;;;12.14;66.71;99855.47;6186122;23;45174;-73
2023/04/12 08:48:03;;;;;;;;;0.00;0.00;;;;;12.39;65.84;99861.69;6186141;23;45234;-72
2023/04/12 08:50:30;;;;;;;;;5.00;4.50;;;;;12.45;64.54;99848.44;6186041;23;45289;-73
2023/04/12 08:52:57;;;;;;;;;1.00;1.00;;;;;12.42;63.25;99839.63;6184974;23;45363;-73
2023/04/12 08:55:22;;;;;;;;;0.00;0.00;;;;;12.62;64.76;99869.66;6158949;23;45296;-73
2023/04/12 08:57:52;;;;;;;;;0.00;0.00;;;;;12.65;63.99;99856.41;6185962;23;45169;-74
2023/04/12 09:00:19;;;;;;;;;0.00;0.00;;;;;12.81;63.60;99867.03;6186093;23;45196;-73
2023/04/12 09:02:47;;;;;;;;;2.00;2.00;;;;;12.92;63.67;99865.28;6185570;23;45274;-72
2023/04/12 09:05:13;;;;;;;;;3.75;2.75;;;;;13.02;63.83;99871.44;6158434;23;45347;-73
2023/04/12 09:07:39;;;;;;;;;0.00;0.00;;;;;13.19;63.02;99885.56;6185818;23;45258;-73
2023/04/12 09:10:05;;;;;;;;;0.00;0.00;;;;;13.25;61.39;99866.09;6158993;23;45921;-73
2023/04/12 09:12:31;;;;;;;;;0.33;0.00;;;;;13.35;61.85;99859.94;6185359;23;46135;-72
2023/04/12 09:15:12;;;;;;;;;0.00;0.00;;;;;13.56;61.02;99889.09;6186215;23;45160;-71
2023/04/12 09:17:38;;;;;;;;;0.00;0.00;;;;;13.62;59.97;99872.28;6185770;23;45311;-72
2023/04/12 09:20:15;;;;;;;;;1.67;1.67;;;;;13.79;59.70;99877.53;6184590;23;45283;-72
2023/04/12 09:22:44;;;;;;;;;3.00;1.00;;;;;13.69;60.40;99867.81;6157912;23;47207;-72
2023/04/12 09:25:10;;;;;;;;;1.00;0.00;;;;;13.37;59.98;99823.66;6183517;23;45270;-73
2023/04/12 09:27:46;;;;;;;;;0.00;0.00;;;;;13.65;59.32;99875.78;6185511;23;45270;-72
2023/04/12 09:30:12;;;;;;;;;0.00;0.00;;;;;13.69;59.21;99865.16;6185370;23;45255;-72
2023/04/12 09:32:38;;;;;;;;;0.00;0.00;;;;;13.65;58.87;99872.25;6157938;23;47781;-72
2023/04/12 09:35:04;;;;;;;;;0.00;0.00;;;;;13.85;57.62;99872.19;6185323;23;45270;-71
2023/04/12 09:37:30;;;;;;;;;0.00;0.00;;;;;14.03;57.70;99860.59;6157951;23;45186;-72
2023/04/12 09:40:04;;;;;;;;;0.00;0.00;;;;;14.22;57.37;99878.19;6185791;23;45254;-71
2023/04/12 09:42:30;;;;;;;;;1.00;0.00;;;;;14.37;57.98;99879.00;6158076;23;47294;-71
2023/04/12 09:44:56;;;;;;;;;0.33;0.00;;;;;14.26;56.57;99869.34;6185395;23;45221;-72
2023/04/12 09:47:36;;;;;;;;;1.00;0.00;;;;;14.21;55.88;99881.75;6185447;23;45167;-71
2023/04/12 09:50:03;;;;;;;;;0.00;0.00;;;;;14.25;56.93;99888.81;6185573;23;45235;-71
2023/04/12 09:52:35;;;;;;;;;1.00;0.00;;;;;14.30;56.45;99870.19;6185080;23;45244;-71
2023/04/12 09:55:02;;;;;;;;;3.67;0.00;;;;;14.52;54.77;99870.97;6158061;23;45312;-71
2023/04/12 09:57:27;;;;;;;;;1.00;0.00;;;;;14.70;53.39;99878.84;6184410;23;45301;-72
2023/04/12 09:59:58;;;;;;;;;0.00;0.00;;;;;14.72;54.76;99863.72;6184087;23;46409;-71
2023/04/12 10:02:27;;;;;;;;;0.00;0.00;;;;;15.09;54.20;99891.81;6158813;23;45246;-71
2023/04/12 10:04:53;;;;;;;;;0.00;0.00;;;;;15.21;52.40;99886.41;6158672;23;45305;-72
2023/04/12 10:07:18;;;;;;;;;1.00;0.00;;;;;15.55;55.02;99876.28;6184864;23;45210;-71
2023/04/12 10:09:45;;;;;;;;;0.00;0.00;;;;;15.67;54.16;99865.47;6185281;23;45429;-70
2023/04/12 10:12:10;;;;;;;;;0.00;0.00;;;;;15.52;50.71;99870.13;6185185;23;45398;-69
2023/04/12 10:14:36;;;;;;;;;1.00;1.00;;;;;15.53;50.84;99894.06;6157947;23;45343;-70
2023/04/12 10:17:03;;;;;;;;;0.00;0.00;;;;;15.47;51.02;99885.25;6185096;23;45183;-69
2023/04/12 10:19:30;;;;;;;;;0.67;0.00;;;;;15.39;51.17;99878.22;6185338;23;45282;-72
2023/04/12 10:21:57;;;;;;;;;2.00;0.00;;;;;15.15;50.63;99891.75;6154249;23;47602;-70
2023/04/12 10:24:26;;;;;;;;;1.00;0.00;;;;;14.91;49.47;99895.53;6173171;23;45318;-69
2023/04/12 10:26:54;;;;;;;;;0.00;0.00;;;;;14.85;50.90;99890.25;6154536;23;45250;-69
2023/04/12 10:29:26;;;;;;;;;3.00;0.00;;;;;14.73;51.51;99891.22;6154282;23;45317;-70
2023/04/12 10:31:52;;;;;;;;;0.00;0.00;;;;;14.52;49.90;99885.16;6178305;23;48213;-69
2023/04/12 10:34:23;;;;;;;;;2.00;0.00;;;;;14.39;51.79;99888.75;6152799;23;45307;-69
2023/04/12 10:36:55;;;;;;;;;1.67;1.00;;;;;14.20;51.26;99906.59;6155093;23;45239;-69
2023/04/12 10:39:39;;;;;;;;;0.00;0.00;;;;;14.09;50.86;99905.75;6154922;23;45186;-69
2023/04/12 10:42:14;;;;;;;;;2.67;0.00;;;;;14.07;50.96;99896.91;6154679;23;46735;-70
2023/04/12 10:44:40;;;;;;;;;0.00;0.00;;;;;13.93;49.93;99880.13;6154569;23;45205;-69
2023/04/12 10:47:05;;;;;;;;;0.00;0.00;;;;;14.08;51.18;99902.19;6154807;23;45295;-70
2023/04/12 10:49:31;;;;;;;;;0.00;0.00;;;;;14.00;49.95;99880.09;6155958;23;45321;-69
2023/04/12 10:51:59;;;;;;;;;2.67;0.00;;;;;14.30;51.44;99888.78;6155378;23;45399;-69
2023/04/12 10:54:25;;;;;;;;;0.33;0.33;;;;;14.49;51.03;99893.13;6155983;23;45234;-69
2023/04/12 10:56:51;;;;;;;;;2.67;0.00;;;;;14.61;51.24;99886.00;6155930;23;45276;-69
2023/04/12 10:59:16;;;;;;;;;0.00;0.00;;;;;14.68;48.32;99906.34;6156043;23;45451;-72
2023/04/12 11:02:09;;;;;;;;;5.00;3.33;;;;;14.63;48.86;99922.31;6155103;23;45336;-69
2023/04/12 11:04:35;;;;;;;;;3.00;2.00;;;;;14.50;48.57;99896.66;6156300;23;45274;-69
2023/04/12 11:07:06;;;;;;;;;1.00;1.00;;;;;14.53;49.50;99886.03;6155682;23;45418;-70
2023/04/12 11:09:31;;;;;;;;;1.00;1.00;;;;;14.96;48.69;99902.56;6155015;23;45269;-69
2023/04/12 11:12:03;;;;;;;;;2.00;0.00;;;;;15.21;49.34;99905.03;6178519;23;48066;-69
2023/04/12 11:14:33;;;;;;;;;0.67;0.00;;;;;15.39;48.38;99882.66;6156194;23;45204;-68
2023/04/12 11:17:05;;;;;;;;;0.67;0.67;;;;;15.84;47.54;99905.28;6150994;23;45313;-69
2023/04/12 11:19:38;;;;;;;;;0.33;0.33;;;;;15.92;47.21;99878.56;6156202;23;45150;-68
2023/04/12 11:22:05;;;;;;;;;2.00;0.00;;;;;16.20;47.47;99888.88;6153120;23;46631;-69
2023/04/12 11:24:31;;;;;;;;;1.00;0.00;;;;;16.46;46.14;99861.81;6155146;23;45227;-69
2023/04/12 11:26:57;;;;;;;;;3.00;0.33;;;;;16.83;45.55;99871.97;6156159;23;45298;-69
2023/04/12 11:29:26;;;;;;;;;0.00;0.00;;;;;17.25;46.21;99888.16;6128951;23;45410;-69
2023/04/12 11:31:51;;;;;;;;;4.00;0.00;;;;;17.37;44.09;99858.56;6155081;23;46298;-70
2023/04/12 11:34:17;;;;;;;;;1.00;0.00;;;;;17.79;43.26;99864.91;6155824;23;44933;-70